createdAt,value
2018-04-26T00:01:08.972Z,8.00
2018-04-26T00:03:36.518Z,8.10
2018-04-26T00:06:04.056Z,8.10
2018-04-26T00:08:31.562Z,8.10
2018-04-26T00:10:59.082Z,8.10
2018-04-26T00:13:26.618Z,8.20
2018-04-26T00:15:56.096Z,8.20
2018-04-26T00:18:23.618Z,8.20
2018-04-26T00:20:51.131Z,8.20
2018-04-26T00:23:18.642Z,8.30
2018-04-26T00:25:46.190Z,8.30
2018-04-26T00:28:13.811Z,8.30
2018-04-26T00:30:43.686Z,8.30
2018-04-26T00:33:11.209Z,8.30
2018-04-26T00:35:38.752Z,8.30
2018-04-26T00:38:06.282Z,8.30
2018-04-26T00:40:33.800Z,8.20
2018-04-26T00:43:01.309Z,8.20
2018-04-26T00:45:28.884Z,8.20
2018-04-26T00:47:57.209Z,8.10
2018-04-26T00:50:24.710Z,8.10
2018-04-26T00:52:52.234Z,8.10
2018-04-26T00:55:19.762Z,8.10
2018-04-26T00:57:47.292Z,8.10
2018-04-26T01:00:14.823Z,8.10
2018-04-26T01:02:42.383Z,8.10
2018-04-26T01:05:09.906Z,8.10
2018-04-26T01:07:37.424Z,8.10
2018-04-26T01:10:05.700Z,8.10
2018-04-26T01:12:33.987Z,8.10
2018-04-26T01:15:01.488Z,8.00
2018-04-26T01:17:29.012Z,8.00
2018-04-26T01:19:56.551Z,8.00
2018-04-26T01:22:24.957Z,8.00
2018-04-26T01:24:52.476Z,8.00
2018-04-26T01:27:20.770Z,8.00
2018-04-26T01:29:48.296Z,8.00
2018-04-26T01:32:15.816Z,8.00
2018-04-26T01:34:43.344Z,8.00
2018-04-26T01:37:23.490Z,8.00
2018-04-26T01:39:51.775Z,8.00
2018-04-26T01:42:19.330Z,8.00
2018-04-26T01:44:46.850Z,8.00
2018-04-26T01:47:14.379Z,8.00
2018-04-26T01:49:41.914Z,8.00
2018-04-26T01:52:09.456Z,8.00
2018-04-26T01:54:37.734Z,8.00
2018-04-26T01:57:06.037Z,8.00
2018-04-26T01:59:33.564Z,8.00
2018-04-26T02:02:01.080Z,8.00
2018-04-26T02:04:29.154Z,8.00
2018-04-26T02:06:56.850Z,8.00
2018-04-26T02:09:25.137Z,8.00
2018-04-26T02:11:53.424Z,8.00
2018-04-26T02:14:21.006Z,8.00
2018-04-26T02:16:48.536Z,8.00
2018-04-26T02:19:16.818Z,8.10
2018-04-26T02:21:44.332Z,8.00
2018-04-26T02:24:13.356Z,8.00
2018-04-26T02:26:41.622Z,8.00
2018-04-26T02:29:09.132Z,8.10
2018-04-26T02:31:36.655Z,8.10
2018-04-26T02:34:04.200Z,8.00
2018-04-26T02:36:32.498Z,8.10
2018-04-26T02:39:00.005Z,8.00
2018-04-26T02:41:27.536Z,8.10
2018-04-26T02:43:55.057Z,8.00
2018-04-26T02:46:23.338Z,8.10
2018-04-26T02:48:51.626Z,8.10
2018-04-26T02:51:19.141Z,8.10
2018-04-26T02:53:47.561Z,8.10
2018-04-26T02:56:15.088Z,8.10
2018-04-26T02:58:42.604Z,8.10
2018-04-26T03:01:10.235Z,8.10
2018-04-26T03:03:37.809Z,8.10
2018-04-26T03:06:05.344Z,8.10
2018-04-26T03:08:32.888Z,8.10
2018-04-26T03:11:01.174Z,8.10
2018-04-26T03:13:29.471Z,8.10
2018-04-26T03:15:56.977Z,8.00
2018-04-26T03:18:24.489Z,8.10
2018-04-26T03:20:53.279Z,8.10
2018-04-26T03:23:21.399Z,8.10
2018-04-26T03:25:49.945Z,8.10
2018-04-26T03:28:17.475Z,8.10
2018-04-26T03:30:45.766Z,8.10
2018-04-26T03:33:13.274Z,8.10
2018-04-26T03:35:40.795Z,8.10
2018-04-26T03:38:08.346Z,8.10
2018-04-26T03:40:35.988Z,8.10
2018-04-26T03:43:04.265Z,8.10
2018-04-26T03:45:32.555Z,8.10
2018-04-26T03:48:00.082Z,8.10
2018-04-26T03:50:27.648Z,8.10
2018-04-26T03:52:56.123Z,8.10
2018-04-26T03:55:24.408Z,8.10
2018-04-26T03:57:52.688Z,8.10
2018-04-26T04:00:32.766Z,8.00
2018-04-26T04:03:12.120Z,8.00
2018-04-26T04:05:51.506Z,8.00
2018-04-26T04:08:19.789Z,8.10
2018-04-26T04:10:48.065Z,8.10
2018-04-26T04:13:16.352Z,8.10
2018-04-26T04:15:43.882Z,8.00
2018-04-26T04:18:11.448Z,8.10
2018-04-26T04:20:39.846Z,8.10
2018-04-26T04:23:07.372Z,8.00
2018-04-26T04:25:34.877Z,8.10
2018-04-26T04:28:02.433Z,8.10
2018-04-26T04:30:29.974Z,8.10
2018-04-26T04:32:57.968Z,8.10
2018-04-26T04:35:25.553Z,8.10
2018-04-26T04:37:53.045Z,8.10
2018-04-26T04:40:20.593Z,8.10
2018-04-26T04:42:48.115Z,8.10
2018-04-26T04:45:15.642Z,8.10
2018-04-26T04:47:43.839Z,8.10
2018-04-26T04:50:11.385Z,8.10
2018-04-26T04:52:38.912Z,8.10
2018-04-26T04:55:07.199Z,8.10
2018-04-26T04:57:35.496Z,8.10
2018-04-26T05:00:03.092Z,8.10
2018-04-26T05:02:30.645Z,8.10
2018-04-26T05:04:58.210Z,8.20
2018-04-26T05:07:25.738Z,8.20
2018-04-26T05:09:53.259Z,8.20
2018-04-26T05:12:21.227Z,8.20
2018-04-26T05:14:49.524Z,8.20
2018-04-26T05:17:17.039Z,8.20
2018-04-26T05:19:44.583Z,8.20
2018-04-26T05:22:12.092Z,8.20
2018-04-26T05:24:40.372Z,8.20
2018-04-26T05:27:07.910Z,8.20
2018-04-26T05:29:35.575Z,8.20
2018-04-26T05:32:03.134Z,8.20
2018-04-26T05:34:31.434Z,8.20
2018-04-26T05:36:58.946Z,8.20
2018-04-26T05:39:26.465Z,8.20
2018-04-26T05:41:53.999Z,8.20
2018-04-26T05:44:22.424Z,8.20
2018-04-26T05:46:49.950Z,8.20
2018-04-26T05:49:17.491Z,8.20
2018-04-26T05:51:45.228Z,8.20
2018-04-26T05:54:12.750Z,8.30
2018-04-26T05:56:40.298Z,8.30
2018-04-26T05:59:07.849Z,8.30
2018-04-26T06:01:36.050Z,8.20
2018-04-26T06:04:03.563Z,8.30
2018-04-26T06:06:31.079Z,8.30
2018-04-26T06:08:58.619Z,8.30
2018-04-26T06:11:26.146Z,8.30
2018-04-26T06:13:53.930Z,8.30
2018-04-26T06:16:21.481Z,8.30
2018-04-26T06:18:49.069Z,8.20
2018-04-26T06:21:17.245Z,8.20
2018-04-26T06:23:44.981Z,8.20
2018-04-26T06:26:12.526Z,8.20
2018-04-26T06:28:40.817Z,8.20
2018-04-26T06:31:08.385Z,8.20
2018-04-26T06:33:36.222Z,8.20
2018-04-26T06:36:03.782Z,8.20
2018-04-26T06:38:32.067Z,8.20
2018-04-26T06:40:59.593Z,8.20
2018-04-26T06:43:27.872Z,8.20
2018-04-26T06:45:56.141Z,8.20
2018-04-26T06:48:23.676Z,8.20
2018-04-26T06:50:52.458Z,8.20
2018-04-26T06:53:19.977Z,8.20
2018-04-26T06:55:47.481Z,8.20
2018-04-26T06:58:15.833Z,8.30
2018-04-26T07:00:43.357Z,8.30
2018-04-26T07:03:11.661Z,8.30
2018-04-26T07:05:39.191Z,8.30
2018-04-26T07:08:08.055Z,8.40
2018-04-26T07:10:35.559Z,8.30
2018-04-26T07:13:03.076Z,8.40
2018-04-26T07:15:30.595Z,8.40
2018-04-26T07:17:58.103Z,8.50
2018-04-26T07:20:26.475Z,8.70
2018-04-26T07:22:53.972Z,8.60
2018-04-26T07:25:21.494Z,8.70
2018-04-26T07:27:49.905Z,8.70
2018-04-26T07:30:17.529Z,8.70
2018-04-26T07:32:45.027Z,8.80
2018-04-26T07:35:12.531Z,8.80
2018-04-26T07:37:40.024Z,8.90
2018-04-26T07:40:08.325Z,9.00
2018-04-26T07:42:35.862Z,8.90
2018-04-26T07:45:03.415Z,9.00
2018-04-26T07:47:31.700Z,9.10
2018-04-26T07:49:59.211Z,9.10
2018-04-26T07:52:26.751Z,9.10
2018-04-26T07:54:54.279Z,9.10
2018-04-26T07:57:21.827Z,9.00
2018-04-26T07:59:49.400Z,9.00
2018-04-26T08:02:17.541Z,9.10
2018-04-26T08:04:45.057Z,9.10
2018-04-26T08:07:12.562Z,9.10
2018-04-26T08:09:40.831Z,9.20
2018-04-26T08:12:08.353Z,9.20
2018-04-26T08:14:36.140Z,9.20
2018-04-26T08:17:03.649Z,9.40
2018-04-26T08:19:31.211Z,9.50
2018-04-26T08:21:58.693Z,9.60
2018-04-26T08:24:27.075Z,9.70
2018-04-26T08:26:54.624Z,9.70
2018-04-26T08:29:22.196Z,9.80
2018-04-26T08:31:49.727Z,9.80
2018-04-26T08:34:17.250Z,9.90
2018-04-26T08:36:45.591Z,10.00
2018-04-26T08:39:13.102Z,10.00
2018-04-26T08:41:40.632Z,10.10
2018-04-26T08:44:08.958Z,10.10
2018-04-26T08:46:36.476Z,10.20
2018-04-26T08:49:03.996Z,10.20
2018-04-26T08:51:31.538Z,10.10
2018-04-26T08:53:59.060Z,9.90
2018-04-26T08:56:26.592Z,9.70
2018-04-26T08:58:54.102Z,9.60
2018-04-26T09:01:21.624Z,9.60
2018-04-26T09:03:50.005Z,9.50
2018-04-26T09:06:18.280Z,9.50
2018-04-26T09:08:47.580Z,9.70
2018-04-26T09:11:15.859Z,9.80
2018-04-26T09:13:44.161Z,9.90
2018-04-26T09:16:11.682Z,9.90
2018-04-26T09:18:39.204Z,10.00
2018-04-26T09:21:06.810Z,10.00
2018-04-26T09:23:34.285Z,10.10
2018-04-26T09:26:01.792Z,10.30
2018-04-26T09:28:29.316Z,10.40
2018-04-26T09:30:56.848Z,10.50
2018-04-26T09:33:24.345Z,10.50
2018-04-26T09:35:52.082Z,10.40
2018-04-26T09:38:19.637Z,10.00
2018-04-26T09:40:47.159Z,9.30
2018-04-26T09:43:14.670Z,8.80
2018-04-26T09:45:42.193Z,8.60
2018-04-26T09:48:09.726Z,8.70
2018-04-26T09:50:38.018Z,8.60
2018-04-26T09:53:05.520Z,8.70
2018-04-26T09:55:33.373Z,8.70
2018-04-26T09:58:00.827Z,8.70
2018-04-26T10:00:30.046Z,8.80
2018-04-26T10:02:57.559Z,8.80
2018-04-26T10:05:30.822Z,8.90
2018-04-26T10:07:58.330Z,9.20
2018-04-26T10:10:25.867Z,9.20
2018-04-26T10:12:53.398Z,9.30
2018-04-26T10:15:21.020Z,9.50
2018-04-26T10:17:48.541Z,9.50
2018-04-26T10:20:16.055Z,9.60
2018-04-26T10:22:43.587Z,9.60
2018-04-26T10:25:11.137Z,9.40
2018-04-26T10:27:38.676Z,9.10
2018-04-26T10:30:06.187Z,8.90
2018-04-26T10:32:33.731Z,8.60
2018-04-26T10:35:01.233Z,8.50
2018-04-26T10:37:29.480Z,8.50
2018-04-26T10:39:57.002Z,8.50
2018-04-26T10:42:25.286Z,8.60
2018-04-26T10:44:52.830Z,8.50
2018-04-26T10:47:20.370Z,8.60
2018-04-26T10:49:47.966Z,8.50
2018-04-26T10:52:15.498Z,8.60
2018-04-26T10:54:43.640Z,8.60
2018-04-26T10:57:11.172Z,8.60
2018-04-26T10:59:38.690Z,8.70
2018-04-26T11:02:07.178Z,8.90
2018-04-26T11:04:34.912Z,8.90
2018-04-26T11:07:02.449Z,9.10
2018-04-26T11:09:29.965Z,9.30
2018-04-26T11:11:58.244Z,9.50
2018-04-26T11:14:26.641Z,9.50
2018-04-26T11:16:54.159Z,9.50
2018-04-26T11:19:22.439Z,9.50
2018-04-26T11:21:50.729Z,9.60
2018-04-26T11:24:18.278Z,9.60
2018-04-26T11:26:46.052Z,9.70
2018-04-26T11:29:13.681Z,9.80
2018-04-26T11:31:41.305Z,10.00
2018-04-26T11:34:08.877Z,10.20
2018-04-26T11:36:36.415Z,10.40
2018-04-26T11:39:03.944Z,10.50
2018-04-26T11:41:33.250Z,10.40
2018-04-26T11:44:01.535Z,10.30
2018-04-26T11:46:29.063Z,10.30
2018-04-26T11:48:56.616Z,10.20
2018-04-26T11:51:24.130Z,10.20
2018-04-26T11:53:51.669Z,10.10
2018-04-26T11:56:19.211Z,10.20
2018-04-26T11:58:47.484Z,10.30
2018-04-26T12:01:15.765Z,10.40
2018-04-26T12:03:44.054Z,10.50
2018-04-26T12:06:12.682Z,10.50
2018-04-26T12:08:40.214Z,10.60
2018-04-26T12:11:07.737Z,10.70
2018-04-26T12:13:35.233Z,10.80
2018-04-26T12:16:02.776Z,10.70
2018-04-26T12:18:31.067Z,11.20
2018-04-26T12:20:58.706Z,11.20
2018-04-26T12:23:26.405Z,11.30
2018-04-26T12:25:53.959Z,11.60
2018-04-26T12:28:21.621Z,11.90
2018-04-26T12:30:49.139Z,12.00
2018-04-26T12:33:17.621Z,11.80
2018-04-26T12:35:45.919Z,11.70
2018-04-26T12:38:13.447Z,11.70
2018-04-26T12:40:40.982Z,11.70
2018-04-26T12:43:09.122Z,11.50
2018-04-26T12:45:36.632Z,11.30
2018-04-26T12:48:04.170Z,11.10
2018-04-26T12:50:31.715Z,10.90
2018-04-26T12:52:59.278Z,10.80
2018-04-26T12:55:26.800Z,10.80
2018-04-26T12:57:54.440Z,11.20
2018-04-26T13:00:22.738Z,11.70
2018-04-26T13:02:50.260Z,11.70
2018-04-26T13:05:18.541Z,11.70
2018-04-26T13:07:46.079Z,11.70
2018-04-26T13:10:13.599Z,12.00
2018-04-26T13:12:41.144Z,12.30
2018-04-26T13:15:08.723Z,12.60
2018-04-26T13:17:36.235Z,12.90
2018-04-26T13:20:03.773Z,13.20
2018-04-26T13:22:31.302Z,13.10
2018-04-26T13:24:58.823Z,13.00
2018-04-26T13:27:26.471Z,13.30
2018-04-26T13:29:53.968Z,13.80
2018-04-26T13:32:21.491Z,14.40
2018-04-26T13:34:49.823Z,14.70
2018-04-26T13:37:18.323Z,14.70
2018-04-26T13:39:45.854Z,14.30
2018-04-26T13:42:13.610Z,13.70
2018-04-26T13:44:41.367Z,13.30
2018-04-26T13:47:09.138Z,13.00
2018-04-26T13:49:36.812Z,12.70
2018-04-26T13:52:04.681Z,12.50
2018-04-26T13:54:32.206Z,12.40
2018-04-26T13:57:00.125Z,12.20
2018-04-26T13:59:27.732Z,12.00
2018-04-26T14:01:55.277Z,11.70
2018-04-26T14:04:23.561Z,11.50
2018-04-26T14:06:51.088Z,11.40
2018-04-26T14:09:18.643Z,11.30
2018-04-26T14:11:46.253Z,11.30
2018-04-26T14:14:14.352Z,11.10
2018-04-26T14:16:42.647Z,11.30
2018-04-26T14:19:10.200Z,11.90
2018-04-26T14:21:37.765Z,11.70
2018-04-26T14:24:06.071Z,11.40
2018-04-26T14:26:34.361Z,11.40
2018-04-26T14:29:01.892Z,11.50
2018-04-26T14:31:30.203Z,11.50
2018-04-26T14:33:57.745Z,11.40
2018-04-26T14:36:26.107Z,11.90
2018-04-26T14:38:53.635Z,11.90
2018-04-26T14:41:21.196Z,12.40
2018-04-26T14:43:48.779Z,12.90
2018-04-26T14:46:17.097Z,13.30
2018-04-26T14:48:44.646Z,13.30
2018-04-26T14:51:12.177Z,13.00
2018-04-26T14:53:40.533Z,13.80
2018-04-26T14:56:08.928Z,13.70
2018-04-26T14:58:36.442Z,13.70
2018-04-26T15:01:03.963Z,13.50
2018-04-26T15:03:31.667Z,13.30
2018-04-26T15:05:59.210Z,13.60
2018-04-26T15:08:28.301Z,13.80
2018-04-26T15:10:55.811Z,13.70
2018-04-26T15:13:23.351Z,13.70
2018-04-26T15:15:50.892Z,14.30
2018-04-26T15:18:18.507Z,14.80
2018-04-26T15:20:46.796Z,14.60
2018-04-26T15:23:14.332Z,14.60
2018-04-26T15:25:41.881Z,14.20
2018-04-26T15:28:10.192Z,14.50
2018-04-26T15:30:37.710Z,14.50
2018-04-26T15:33:06.748Z,15.20
2018-04-26T15:35:34.274Z,15.20
2018-04-26T15:38:02.348Z,15.30
2018-04-26T15:40:29.893Z,15.40
2018-04-26T15:42:57.583Z,15.10
2018-04-26T15:45:25.913Z,14.40
2018-04-26T15:47:53.758Z,14.40
2018-04-26T15:53:35.671Z,13.50
2018-04-26T15:56:28.541Z,13.30
2018-04-26T15:59:16.586Z,13.40
2018-04-26T16:01:59.484Z,13.20
2018-04-26T16:04:38.914Z,13.10
2018-04-26T16:07:42.381Z,13.10
2018-04-26T16:10:22.424Z,13.00
2018-04-26T16:13:08.320Z,13.00
2018-04-26T16:15:53.598Z,13.00
2018-04-26T16:18:47.903Z,13.00
2018-04-26T16:21:32.965Z,13.50
2018-04-26T16:24:31.723Z,13.70
2018-04-26T16:30:39.075Z,13.90
2018-04-26T16:33:33.463Z,13.90
2018-04-26T16:36:25.604Z,13.70
2018-04-26T16:41:57.509Z,13.80
2018-04-26T16:44:25.937Z,14.00
2018-04-26T16:46:54.225Z,14.00
2018-04-26T16:49:21.755Z,14.00
2018-04-26T16:51:49.544Z,14.00
2018-04-26T16:54:17.095Z,13.50
2018-04-26T16:56:45.393Z,13.70
2018-04-26T16:59:12.925Z,13.60
2018-04-26T17:01:41.228Z,13.50
2018-04-26T17:04:08.982Z,13.40
2018-04-26T17:06:36.512Z,13.50
2018-04-26T17:09:04.034Z,13.50
2018-04-26T17:11:31.550Z,13.70
2018-04-26T17:13:59.092Z,13.70
2018-04-26T17:16:26.676Z,13.80
2018-04-26T17:18:54.222Z,13.60
2018-04-26T17:21:22.531Z,13.20
2018-04-26T17:23:50.057Z,13.10
2018-04-26T17:26:18.359Z,12.80
2018-04-26T17:28:46.692Z,12.80
2018-04-26T17:31:14.243Z,12.60
2018-04-26T17:33:41.777Z,12.60
2018-04-26T17:36:09.363Z,12.30
2018-04-26T17:38:36.915Z,12.40
2018-04-26T17:41:04.437Z,12.30
2018-04-26T17:43:32.959Z,12.10
2018-04-26T17:46:00.484Z,12.20
2018-04-26T17:48:28.017Z,12.30
2018-04-26T17:50:55.553Z,12.20
2018-04-26T17:53:23.840Z,12.00
2018-04-26T17:55:52.859Z,12.10
2018-04-26T17:58:20.518Z,12.10
2018-04-26T18:00:47.983Z,12.10
2018-04-26T18:03:15.513Z,12.10
2018-04-26T18:05:43.851Z,12.00
2018-04-26T18:08:11.383Z,12.00
2018-04-26T18:10:38.950Z,12.00
2018-04-26T18:13:06.480Z,11.80
2018-04-26T18:15:34.075Z,11.80
2018-04-26T18:18:01.639Z,11.80
2018-04-26T18:20:29.614Z,11.70
2018-04-26T18:22:57.219Z,11.60
2018-04-26T18:25:24.887Z,11.50
2018-04-26T18:27:52.492Z,11.40
2018-04-26T18:30:20.151Z,11.30
2018-04-26T18:32:47.774Z,11.30
2018-04-26T18:35:15.460Z,11.30
2018-04-26T18:37:43.087Z,11.30
2018-04-26T18:40:11.854Z,11.20
2018-04-26T18:42:40.195Z,11.10
2018-04-26T18:45:07.791Z,11.10
2018-04-26T18:47:35.403Z,11.10
2018-04-26T18:50:04.141Z,11.00
2018-04-26T18:52:31.772Z,10.90
2018-04-26T18:54:59.490Z,10.90
2018-04-26T18:57:28.099Z,10.80
2018-04-26T18:59:55.673Z,10.80
2018-04-26T19:02:23.322Z,10.70
2018-04-26T19:04:52.502Z,10.60
2018-04-26T19:07:20.227Z,10.60
2018-04-26T19:09:48.557Z,10.60
2018-04-26T19:12:16.205Z,10.50
2018-04-26T19:14:43.831Z,10.50
2018-04-26T19:17:11.415Z,10.50
2018-04-26T19:19:38.994Z,10.40
2018-04-26T19:22:06.773Z,10.30
2018-04-26T19:24:35.373Z,10.20
2018-04-26T19:27:02.949Z,10.20
2018-04-26T19:29:31.376Z,10.20
2018-04-26T19:31:59.895Z,10.10
2018-04-26T19:34:29.187Z,10.10
2018-04-26T19:36:56.809Z,10.10
2018-04-26T19:39:24.486Z,10.00
2018-04-26T19:41:53.094Z,10.00
2018-04-26T19:44:21.762Z,10.00
2018-04-26T19:46:50.185Z,9.90
2018-04-26T19:49:17.821Z,9.90
2018-04-26T19:51:46.299Z,9.80
2018-04-26T19:54:14.680Z,9.60
2018-04-26T19:56:42.238Z,9.60
2018-04-26T19:59:09.807Z,9.60
2018-04-26T20:01:37.452Z,9.60
2018-04-26T20:04:05.022Z,9.50
2018-04-26T20:06:32.608Z,9.50
2018-04-26T20:09:00.918Z,9.50
2018-04-26T20:11:28.474Z,9.40
2018-04-26T20:13:56.844Z,9.40
2018-04-26T20:16:24.472Z,9.40
2018-04-26T20:18:52.849Z,9.40
2018-04-26T20:21:20.410Z,9.40
2018-04-26T20:23:48.744Z,9.30
2018-04-26T20:26:16.272Z,9.30
2018-04-26T20:28:44.522Z,9.30
2018-04-26T20:31:12.106Z,9.30
2018-04-26T20:33:39.650Z,9.30
2018-04-26T20:36:07.266Z,9.30
2018-04-26T20:38:35.720Z,9.20
2018-04-26T20:41:03.326Z,9.10
2018-04-26T20:43:30.908Z,9.20
2018-04-26T20:45:59.210Z,9.00
2018-04-26T20:48:40.676Z,9.00
2018-04-26T20:51:09.020Z,8.90
2018-04-26T20:53:36.563Z,8.90
2018-04-26T20:56:04.122Z,8.80
2018-04-26T20:58:31.703Z,8.90
2018-04-26T21:00:59.265Z,8.80
2018-04-26T21:03:26.802Z,8.80
2018-04-26T21:05:54.337Z,8.70
2018-04-26T21:08:21.957Z,8.70
2018-04-26T21:10:49.469Z,8.70
2018-04-26T21:13:17.056Z,8.60
2018-04-26T21:15:45.164Z,8.60
2018-04-26T21:18:12.685Z,8.50
2018-04-26T21:20:40.210Z,8.50
2018-04-26T21:23:07.808Z,8.50
2018-04-26T21:25:36.835Z,8.40
2018-04-26T21:28:04.355Z,8.40
2018-04-26T21:30:32.684Z,8.40
2018-04-26T21:33:00.204Z,8.40
2018-04-26T21:35:28.741Z,8.30
2018-04-26T21:37:56.190Z,8.30
2018-04-26T21:40:23.700Z,8.30
2018-04-26T21:42:51.235Z,8.30
2018-04-26T21:45:18.757Z,8.30
2018-04-26T21:47:46.278Z,8.20
2018-04-26T21:50:19.552Z,8.10
2018-04-26T21:52:52.660Z,8.10
2018-04-26T21:55:25.752Z,8.10
2018-04-26T21:57:59.612Z,8.10
2018-04-26T22:00:33.008Z,8.10
2018-04-26T22:03:00.706Z,8.10
2018-04-26T22:05:30.264Z,8.10
2018-04-26T22:07:57.769Z,8.00
2018-04-26T22:10:25.312Z,8.00
2018-04-26T22:12:52.822Z,8.00
2018-04-26T22:15:20.339Z,8.00
2018-04-26T22:17:47.890Z,8.00
2018-04-26T22:20:15.490Z,8.00
2018-04-26T22:22:43.008Z,8.00
2018-04-26T22:25:10.520Z,8.00
2018-04-26T22:27:38.673Z,8.00
2018-04-26T22:30:06.945Z,7.90
2018-04-26T22:32:35.223Z,7.90
2018-04-26T22:35:03.496Z,7.90
2018-04-26T22:37:31.041Z,7.90
2018-04-26T22:39:58.580Z,7.90
2018-04-26T22:42:26.081Z,7.90
2018-04-26T22:44:54.355Z,7.80
2018-04-26T22:47:21.951Z,7.80
2018-04-26T22:49:49.582Z,7.80
2018-04-26T22:52:17.671Z,7.80
2018-04-26T22:54:45.189Z,7.80
2018-04-26T22:57:13.472Z,7.70
2018-04-26T22:59:41.758Z,7.70
2018-04-26T23:02:09.305Z,7.70
2018-04-26T23:04:36.812Z,7.70
2018-04-26T23:07:04.315Z,7.70
2018-04-26T23:09:32.717Z,7.70
2018-04-26T23:12:00.294Z,7.70
2018-04-26T23:14:27.861Z,7.70
2018-04-26T23:16:55.369Z,7.70
2018-04-26T23:19:23.643Z,7.60
2018-04-26T23:21:52.049Z,7.60
2018-04-26T23:24:19.569Z,7.50
2018-04-26T23:26:47.071Z,7.60
2018-04-26T23:29:14.588Z,7.50
2018-04-26T23:31:42.298Z,7.50
2018-04-26T23:34:10.068Z,7.60
2018-04-26T23:36:37.577Z,7.60
2018-04-26T23:39:05.089Z,7.60
2018-04-26T23:41:34.654Z,7.60
2018-04-26T23:44:02.917Z,7.60
2018-04-26T23:46:30.449Z,7.60
2018-04-26T23:48:57.954Z,7.60
2018-04-26T23:51:25.457Z,7.60
2018-04-26T23:53:52.969Z,7.60
2018-04-26T23:56:21.249Z,7.70
2018-04-26T23:58:48.812Z,7.70
